Time;durP1;ratioP1;P1;durP2;ratioP2;P2;SDS_P1;SDS_P2;PMS_P1;PMS_P2;Temp;Humidity;BMP_temperature;BMP_pressure;BME280_temperature;BME280_humidity;BME280_pressure;Samples;Min_cycle;Max_cycle;Signal;HPM_P1;HPM_P2
2022/03/07 00:00:26;;;;;;;2.40;2.30;;;18.40;34.50;;;;;;5142814;27;20220;-57
2022/03/07 00:02:52;;;;;;;2.63;2.43;;;18.40;34.50;;;;;;5134021;27;20624;-57
2022/03/07 00:05:18;;;;;;;2.57;2.47;;;18.40;34.50;;;;;;5141158;27;20556;-57
2022/03/07 00:07:44;;;;;;;2.60;2.50;;;18.40;34.40;;;;;;5139766;27;20630;-57
2022/03/07 00:10:10;;;;;;;2.30;2.20;;;18.40;34.40;;;;;;5143682;27;20928;-57
2022/03/07 00:12:35;;;;;;;2.10;2.00;;;18.40;34.30;;;;;;5143362;27;20235;-57
2022/03/07 00:15:01;;;;;;;2.20;2.10;;;18.40;34.40;;;;;;5139217;27;20268;-57
2022/03/07 00:17:27;;;;;;;2.50;2.40;;;18.30;34.30;;;;;;5142401;27;20219;-57
2022/03/07 00:19:52;;;;;;;2.90;2.70;;;18.30;34.20;;;;;;5145130;27;20653;-57
2022/03/07 00:22:18;;;;;;;2.53;2.40;;;18.30;34.20;;;;;;5136568;27;20251;-57
2022/03/07 00:24:43;;;;;;;2.30;2.17;;;18.30;34.30;;;;;;5118307;27;20215;-57
2022/03/07 00:27:09;;;;;;;2.50;2.40;;;18.40;34.30;;;;;;5137039;27;20240;-57
2022/03/07 00:29:34;;;;;;;5.03;2.03;;;18.30;34.20;;;;;;5143294;27;20215;-57
2022/03/07 00:32:00;;;;;;;3.63;2.53;;;18.30;34.20;;;;;;5138174;27;20227;-57
2022/03/07 00:34:26;;;;;;;2.20;2.10;;;18.30;34.20;;;;;;5142231;27;20216;-57
2022/03/07 00:36:51;;;;;;;2.40;2.30;;;18.30;34.20;;;;;;5137170;27;20240;-57
2022/03/07 00:39:17;;;;;;;2.90;2.40;;;18.30;34.20;;;;;;5145585;27;20212;-57
2022/03/07 00:41:42;;;;;;;2.50;2.40;;;18.30;34.30;;;;;;5136427;27;20215;-57
2022/03/07 00:44:08;;;;;;;2.50;2.40;;;18.30;34.20;;;;;;5139127;27;20211;-58
2022/03/07 00:46:34;;;;;;;2.20;2.10;;;18.30;34.20;;;;;;5140461;27;20219;-57
2022/03/07 00:48:59;;;;;;;2.20;2.10;;;18.30;34.20;;;;;;5138592;27;20215;-57
2022/03/07 00:51:25;;;;;;;2.57;2.37;;;18.30;34.20;;;;;;5139162;27;20247;-57
2022/03/07 00:53:51;;;;;;;1.97;1.87;;;18.30;34.20;;;;;;5137038;27;20212;-57
2022/03/07 00:56:16;;;;;;;3.17;2.20;;;18.30;34.20;;;;;;5140342;27;20215;-57
2022/03/07 00:58:42;;;;;;;2.60;2.40;;;18.30;34.30;;;;;;5139081;27;20215;-57
2022/03/07 01:01:08;;;;;;;2.00;1.90;;;18.30;34.20;;;;;;5139303;27;20227;-56
2022/03/07 01:03:33;;;;;;;2.00;1.90;;;18.30;34.20;;;;;;5121262;27;20356;-57
2022/03/07 01:05:59;;;;;;;2.60;2.40;;;18.30;34.10;;;;;;5139344;27;20268;-57
2022/03/07 01:08:26;;;;;;;11.40;2.40;;;18.30;34.20;;;;;;5139814;27;20652;-57
2022/03/07 01:10:52;;;;;;;2.37;2.17;;;18.30;34.10;;;;;;5138780;27;20223;-57
2022/03/07 01:13:18;;;;;;;2.50;2.40;;;18.30;34.10;;;;;;5144021;27;20422;-57
2022/03/07 01:15:44;;;;;;;2.77;2.60;;;18.30;34.10;;;;;;5139253;27;20526;-57
2022/03/07 01:18:10;;;;;;;2.20;2.10;;;18.30;34.10;;;;;;5138332;27;20540;-57
2022/03/07 01:20:36;;;;;;;2.40;2.30;;;18.30;34.10;;;;;;5146841;27;20221;-56
2022/03/07 01:23:02;;;;;;;2.77;2.57;;;18.30;34.10;;;;;;5139672;27;20405;-57
2022/03/07 01:25:28;;;;;;;2.40;2.30;;;18.30;34.00;;;;;;5136659;27;20660;-57
2022/03/07 01:27:53;;;;;;;2.30;2.20;;;18.30;34.00;;;;;;5134724;27;20245;-57
2022/03/07 01:30:19;;;;;;;2.70;2.50;;;18.30;34.00;;;;;;5136117;27;20223;-57
2022/03/07 01:32:44;;;;;;;2.23;2.13;;;18.30;34.00;;;;;;5133635;27;20284;-57
2022/03/07 01:35:10;;;;;;;2.40;2.30;;;18.30;34.00;;;;;;5134410;27;20446;-57
2022/03/07 01:37:36;;;;;;;2.37;2.27;;;18.30;34.00;;;;;;5138339;27;20573;-57
2022/03/07 01:40:02;;;;;;;2.20;2.10;;;18.30;34.00;;;;;;5148076;27;20229;-57
2022/03/07 01:42:27;;;;;;;2.20;2.00;;;18.30;34.00;;;;;;5139394;27;20215;-57
2022/03/07 01:44:53;;;;;;;2.33;2.13;;;18.30;34.00;;;;;;5143411;27;20819;-57
2022/03/07 01:47:19;;;;;;;2.40;2.30;;;18.30;34.00;;;;;;5140419;27;20218;-57
2022/03/07 01:49:44;;;;;;;2.50;2.37;;;18.30;34.00;;;;;;5140065;27;20572;-57
2022/03/07 01:52:11;;;;;;;3.23;2.93;;;18.30;34.00;;;;;;5138987;27;20567;-57
2022/03/07 01:54:37;;;;;;;2.37;2.27;;;18.30;34.00;;;;;;5142611;27;20264;-57
2022/03/07 01:57:03;;;;;;;2.43;2.30;;;18.30;34.00;;;;;;5137454;27;20752;-57
2022/03/07 01:59:29;;;;;;;2.40;2.20;;;18.30;34.00;;;;;;5139284;27;20614;-57
2022/03/07 02:01:58;;;;;;;2.50;2.30;;;18.30;34.00;;;;;;5135952;27;20907;-57
2022/03/07 02:04:24;;;;;;;2.20;2.10;;;18.30;34.00;;;;;;5138332;27;20987;-56
2022/03/07 02:06:49;;;;;;;2.70;2.60;;;18.30;34.00;;;;;;5142078;27;20414;-57
2022/03/07 02:09:16;;;;;;;2.53;2.40;;;18.30;34.00;;;;;;5143836;27;20219;-57
2022/03/07 02:11:42;;;;;;;2.77;2.57;;;18.30;34.00;;;;;;5148021;27;20264;-57
2022/03/07 02:14:19;;;;;;;2.90;2.70;;;18.30;34.00;;;;;;5145406;27;20526;-58
2022/03/07 02:16:46;;;;;;;2.50;2.30;;;18.30;34.00;;;;;;5142509;27;20456;-57
2022/03/07 02:19:12;;;;;;;2.50;2.30;;;18.30;34.00;;;;;;5143363;27;20425;-57
2022/03/07 02:21:44;;;;;;;2.53;2.43;;;18.30;34.00;;;;;;5145020;27;20453;-56
2022/03/07 02:24:10;;;;;;;2.47;2.37;;;18.30;34.00;;;;;;5139356;27;20433;-57
2022/03/07 02:26:35;;;;;;;2.43;2.20;;;18.30;34.00;;;;;;5143066;27;20448;-56
2022/03/07 02:29:01;;;;;;;2.63;2.53;;;18.30;34.00;;;;;;5142408;27;20511;-56
2022/03/07 02:31:29;;;;;;;2.87;2.73;;;18.30;34.00;;;;;;5142825;27;20231;-57
2022/03/07 02:33:55;;;;;;;2.33;2.23;;;18.30;34.00;;;;;;5145900;27;20223;-57
2022/03/07 02:36:21;;;;;;;2.50;2.30;;;18.30;34.00;;;;;;5142190;27;20461;-57
2022/03/07 02:38:46;;;;;;;2.40;2.30;;;18.30;34.00;;;;;;5144472;27;20797;-57
2022/03/07 02:41:12;;;;;;;2.50;2.40;;;18.20;33.90;;;;;;5147707;27;20571;-56
2022/03/07 02:43:38;;;;;;;2.20;2.10;;;18.30;34.00;;;;;;5144959;27;20651;-57
2022/03/07 02:46:05;;;;;;;2.80;2.60;;;18.30;34.00;;;;;;5139932;27;20223;-56
2022/03/07 02:48:30;;;;;;;3.10;3.00;;;18.30;34.00;;;;;;5122606;27;20593;-56
2022/03/07 02:50:58;;;;;;;2.60;2.40;;;18.30;34.00;;;;;;5144890;27;20508;-57
2022/03/07 02:53:24;;;;;;;2.60;2.50;;;18.30;34.00;;;;;;5146286;27;20217;-56
2022/03/07 02:55:50;;;;;;;2.53;2.43;;;18.20;33.90;;;;;;5137379;27;20430;-56
2022/03/07 02:58:16;;;;;;;2.70;2.60;;;18.20;33.90;;;;;;5143525;27;20430;-57
2022/03/07 03:00:42;;;;;;;2.97;2.77;;;18.20;34.60;;;;;;5142315;27;20405;-57
2022/03/07 03:03:07;;;;;;;2.63;2.50;;;18.20;33.80;;;;;;5141819;27;20231;-56
2022/03/07 03:05:34;;;;;;;2.40;2.30;;;18.20;33.80;;;;;;5136714;27;20222;-56
2022/03/07 03:07:59;;;;;;;2.67;2.50;;;18.20;33.90;;;;;;5141425;27;20219;-56
2022/03/07 03:10:25;;;;;;;2.80;2.70;;;18.30;33.90;;;;;;5140465;27;20452;-56
2022/03/07 03:12:51;;;;;;;2.80;2.70;;;18.20;33.80;;;;;;5140466;27;20231;-56
2022/03/07 03:15:17;;;;;;;2.80;2.60;;;18.20;33.80;;;;;;5140057;27;20244;-57
2022/03/07 03:17:45;;;;;;;2.70;2.60;;;18.20;33.80;;;;;;5143526;27;20214;-57
2022/03/07 03:20:12;;;;;;;2.50;2.40;;;18.20;33.80;;;;;;5140267;27;20418;-57
2022/03/07 03:22:42;;;;;;;2.40;2.30;;;18.20;33.80;;;;;;5146753;27;20413;-56
2022/03/07 03:25:09;;;;;;;2.90;2.70;;;18.20;33.80;;;;;;5146434;27;20505;-56
2022/03/07 03:27:36;;;;;;;2.40;2.30;;;18.20;33.80;;;;;;5142023;27;20446;-56
2022/03/07 03:30:02;;;;;;;2.47;2.33;;;18.20;33.80;;;;;;5136449;27;20429;-57
2022/03/07 03:32:29;;;;;;;2.70;2.60;;;18.20;33.80;;;;;;5136060;27;20452;-56
2022/03/07 03:34:55;;;;;;;2.63;2.53;;;18.20;33.90;;;;;;5137545;27;20960;-56
2022/03/07 03:37:23;;;;;;;2.80;2.70;;;18.20;33.80;;;;;;5141523;27;20426;-57
2022/03/07 03:39:49;;;;;;;2.63;2.43;;;18.20;33.80;;;;;;5138872;27;20319;-57
2022/03/07 03:42:14;;;;;;;2.53;2.43;;;18.20;33.80;;;;;;5143298;27;20500;-56
2022/03/07 03:44:40;;;;;;;2.93;2.83;;;18.20;33.80;;;;;;5145901;27;20297;-56
2022/03/07 03:47:06;;;;;;;2.80;2.70;;;18.20;33.80;;;;;;5140745;27;20244;-56
2022/03/07 03:49:31;;;;;;;2.67;2.47;;;18.20;33.80;;;;;;5145168;27;20932;-56
2022/03/07 03:51:57;;;;;;;3.43;3.23;;;18.20;33.80;;;;;;5142821;27;20234;-56
2022/03/07 03:54:23;;;;;;;3.10;2.90;;;18.20;33.70;;;;;;5140087;27;20288;-56
2022/03/07 03:56:50;;;;;;;2.60;2.50;;;18.20;33.80;;;;;;5140915;27;20215;-56
2022/03/07 03:59:15;;;;;;;2.63;2.43;;;18.20;33.80;;;;;;5138235;27;20557;-56
2022/03/07 04:01:44;;;;;;;2.70;2.50;;;18.20;33.80;;;;;;5136213;27;20430;-56
2022/03/07 04:04:11;;;;;;;2.53;2.43;;;18.20;33.80;;;;;;5133711;27;20294;-56
2022/03/07 04:06:37;;;;;;;2.90;2.70;;;18.20;33.80;;;;;;5138291;27;20456;-56
2022/03/07 04:09:05;;;;;;;3.00;2.80;;;18.20;33.80;;;;;;5137389;27;20407;-56
2022/03/07 04:11:31;;;;;;;2.87;2.70;;;18.20;33.80;;;;;;5137647;27;20236;-56
2022/03/07 04:13:56;;;;;;;2.63;2.53;;;18.10;33.70;;;;;;5143299;27;20500;-57
2022/03/07 04:16:22;;;;;;;2.83;2.60;;;18.20;33.80;;;;;;5139242;27;20243;-56
2022/03/07 04:18:48;;;;;;;3.00;2.80;;;18.10;33.70;;;;;;5138596;27;20227;-56
2022/03/07 04:21:14;;;;;;;2.80;2.70;;;18.20;33.80;;;;;;5137069;27;20231;-56
2022/03/07 04:23:39;;;;;;;2.83;2.63;;;18.20;33.70;;;;;;5142170;27;20215;-57
2022/03/07 04:26:05;;;;;;;3.07;2.87;;;18.20;33.70;;;;;;5141611;27;20421;-57
2022/03/07 04:28:31;;;;;;;2.70;2.50;;;18.10;33.70;;;;;;5139639;27;20660;-56
2022/03/07 04:30:56;;;;;;;2.97;2.40;;;18.20;33.70;;;;;;5143797;27;20231;-56
2022/03/07 04:33:22;;;;;;;3.50;3.30;;;18.10;33.70;;;;;;5135550;27;20212;-56
2022/03/07 04:35:47;;;;;;;3.40;3.20;;;18.10;33.70;;;;;;5141568;27;20210;-56
2022/03/07 04:38:13;;;;;;;2.60;2.50;;;18.10;33.60;;;;;;5139055;27;20709;-56
2022/03/07 04:40:38;;;;;;;2.83;2.63;;;18.10;33.70;;;;;;5137461;27;20592;-56
2022/03/07 04:43:04;;;;;;;3.40;3.20;;;18.20;33.70;;;;;;5143683;27;20211;-57
2022/03/07 04:45:30;;;;;;;2.73;2.57;;;18.20;33.70;;;;;;5136160;27;20264;-56
2022/03/07 04:47:55;;;;;;;3.67;3.47;;;18.20;33.70;;;;;;5141967;27;20222;-57
2022/03/07 04:50:21;;;;;;;2.70;2.60;;;18.20;33.70;;;;;;5116692;27;20295;-56
2022/03/07 04:52:47;;;;;;;3.00;2.80;;;18.20;33.70;;;;;;5137420;27;20253;-56
2022/03/07 04:55:13;;;;;;;3.07;2.83;;;18.10;33.60;;;;;;5139071;27;20231;-56
2022/03/07 04:57:39;;;;;;;3.00;2.80;;;18.20;33.60;;;;;;5138079;27;20544;-56
2022/03/07 05:00:07;;;;;;;3.07;2.97;;;18.10;33.60;;;;;;5137598;27;20433;-56
2022/03/07 05:02:33;;;;;;;3.13;2.83;;;18.10;33.50;;;;;;5139422;27;20448;-56
2022/03/07 05:04:58;;;;;;;3.20;3.00;;;18.10;33.60;;;;;;5134908;27;20448;-56
2022/03/07 05:07:24;;;;;;;2.40;2.30;;;18.20;33.60;;;;;;5139072;27;20211;-56
2022/03/07 05:09:50;;;;;;;3.50;3.30;;;18.10;34.30;;;;;;5145842;27;20275;-57
2022/03/07 05:12:15;;;;;;;2.70;2.53;;;18.20;33.60;;;;;;5134527;27;20235;-56
2022/03/07 05:14:41;;;;;;;2.70;2.60;;;18.20;33.60;;;;;;5145593;27;20622;-57
2022/03/07 05:17:07;;;;;;;3.07;2.87;;;18.20;33.50;;;;;;5139046;27;20239;-57
2022/03/07 05:19:32;;;;;;;3.50;3.30;;;18.20;33.50;;;;;;5136460;27;20223;-57
2022/03/07 05:21:58;;;;;;;3.07;2.87;;;18.20;33.50;;;;;;5140760;27;20663;-57
2022/03/07 05:24:25;;;;;;;2.90;2.70;;;18.20;33.50;;;;;;5137695;27;20234;-57
2022/03/07 05:26:51;;;;;;;2.80;2.70;;;18.20;33.40;;;;;;5141522;27;20218;-57
2022/03/07 05:29:17;;;;;;;2.47;2.37;;;18.20;33.30;;;;;;5142127;27;21150;-57
2022/03/07 05:31:42;;;;;;;2.77;2.60;;;18.30;33.30;;;;;;5134611;27;20456;-57
2022/03/07 05:34:08;;;;;;;2.90;2.70;;;18.30;33.20;;;;;;5123050;27;20211;-58
2022/03/07 05:36:34;;;;;;;3.10;2.90;;;18.30;33.10;;;;;;5138454;27;20247;-57
2022/03/07 05:38:59;;;;;;;3.00;2.80;;;18.30;33.10;;;;;;5140117;27;20223;-56
2022/03/07 05:41:25;;;;;;;3.07;2.87;;;18.30;33.00;;;;;;5132047;27;20280;-61
2022/03/07 05:43:51;;;;;;;3.00;2.90;;;18.40;33.10;;;;;;5143637;27;20663;-58
2022/03/07 05:46:16;;;;;;;2.70;2.60;;;18.40;33.00;;;;;;5143723;27;20288;-57
2022/03/07 05:48:42;;;;;;;3.00;2.80;;;18.40;33.00;;;;;;5142784;27;20819;-57
2022/03/07 05:51:07;;;;;;;2.90;2.70;;;18.40;33.00;;;;;;5139149;27;20211;-58
2022/03/07 05:53:33;;;;;;;2.80;2.60;;;18.30;32.90;;;;;;5141030;27;20227;-57
2022/03/07 05:55:59;;;;;;;2.43;2.33;;;18.40;33.10;;;;;;5137559;27;20227;-56
2022/03/07 05:58:25;;;;;;;2.70;2.50;;;18.30;33.00;;;;;;5131248;27;20256;-57
2022/03/07 06:00:50;;;;;;;2.60;2.50;;;18.30;33.00;;;;;;5138738;27;20244;-56
2022/03/07 06:03:16;;;;;;;2.43;2.33;;;18.30;33.00;;;;;;5138174;27;20245;-56
2022/03/07 06:05:42;;;;;;;2.40;2.30;;;18.30;33.00;;;;;;5136169;27;20272;-56
2022/03/07 06:08:07;;;;;;;3.57;2.70;;;18.30;33.00;;;;;;5139575;27;20217;-57
2022/03/07 06:10:33;;;;;;;2.50;2.40;;;18.30;33.00;;;;;;5138300;27;20672;-57
2022/03/07 06:12:59;;;;;;;2.97;2.77;;;18.30;32.90;;;;;;5137823;27;20289;-57
2022/03/07 06:15:25;;;;;;;2.80;2.57;;;18.40;33.00;;;;;;5140840;27;20722;-56
2022/03/07 06:17:53;;;;;;;2.50;2.30;;;18.30;33.00;;;;;;5137997;27;20414;-58
2022/03/07 06:20:20;;;;;;;3.30;2.37;;;18.40;33.00;;;;;;5138243;27;20664;-58
2022/03/07 06:22:46;;;;;;;2.67;2.53;;;18.40;33.10;;;;;;5142484;27;20582;-57
2022/03/07 06:25:11;;;;;;;3.03;2.93;;;18.30;32.90;;;;;;5135716;27;20993;-57
2022/03/07 06:27:37;;;;;;;2.50;2.30;;;18.30;32.90;;;;;;5135267;27;20207;-57
2022/03/07 06:30:04;;;;;;;3.20;3.00;;;18.30;32.90;;;;;;5139989;27;20277;-57
2022/03/07 06:32:29;;;;;;;2.80;2.60;;;18.30;33.00;;;;;;5135989;27;20431;-57
2022/03/07 06:34:55;;;;;;;3.03;2.73;;;18.30;33.00;;;;;;5138740;27;20419;-57
2022/03/07 06:37:21;;;;;;;2.50;2.40;;;18.30;33.00;;;;;;5137234;27;20216;-56
2022/03/07 06:39:47;;;;;;;3.20;3.00;;;18.30;33.00;;;;;;5136848;27;20420;-57
2022/03/07 06:42:13;;;;;;;3.40;2.60;;;18.30;33.00;;;;;;5133746;27;20216;-56
2022/03/07 06:44:39;;;;;;;3.30;2.70;;;18.30;33.00;;;;;;5132131;27;20295;-57
2022/03/07 06:47:08;;;;;;;2.50;2.20;;;18.30;33.00;;;;;;5133424;27;20219;-56
2022/03/07 06:49:34;;;;;;;2.60;2.50;;;18.30;33.10;;;;;;5135638;27;20444;-57
2022/03/07 06:52:00;;;;;;;2.93;2.47;;;18.30;33.00;;;;;;5142618;27;20559;-57
2022/03/07 06:54:25;;;;;;;3.27;3.00;;;18.30;33.10;;;;;;5146837;27;20982;-57
2022/03/07 06:56:51;;;;;;;2.73;2.57;;;18.30;33.00;;;;;;5140489;27;20230;-57
2022/03/07 06:59:17;;;;;;;2.73;2.47;;;18.30;33.00;;;;;;5147597;27;20611;-57
2022/03/07 07:01:43;;;;;;;2.77;2.57;;;18.30;33.00;;;;;;5141327;27;20305;-57
2022/03/07 07:04:08;;;;;;;2.83;2.63;;;18.30;33.00;;;;;;5141449;27;20231;-58
2022/03/07 07:06:35;;;;;;;2.80;2.60;;;18.30;33.00;;;;;;5144597;27;20219;-57
2022/03/07 07:09:01;;;;;;;2.77;2.57;;;18.30;33.00;;;;;;5143832;27;20669;-57
2022/03/07 07:11:27;;;;;;;2.43;2.33;;;18.30;33.00;;;;;;5145111;27;21052;-57
2022/03/07 07:13:52;;;;;;;2.70;2.10;;;18.40;33.10;;;;;;5133964;27;20691;-58
2022/03/07 07:16:18;;;;;;;2.50;2.30;;;18.30;33.00;;;;;;5143653;27;20612;-57
2022/03/07 07:18:44;;;;;;;2.37;2.10;;;18.30;33.00;;;;;;5142107;27;20836;-58
2022/03/07 07:21:09;;;;;;;2.60;2.40;;;18.30;33.00;;;;;;5142354;27;20670;-59
2022/03/07 07:23:36;;;;;;;4.20;2.73;;;18.40;33.10;;;;;;5138113;27;20639;-59
2022/03/07 07:26:06;;;;;;;2.53;2.40;;;18.30;33.00;;;;;;5142620;27;20226;-58
2022/03/07 07:28:31;;;;;;;3.20;2.30;;;18.30;33.00;;;;;;5139752;27;20424;-58
2022/03/07 07:30:57;;;;;;;2.53;2.33;;;18.30;33.10;;;;;;5140799;27;20444;-58
2022/03/07 07:33:23;;;;;;;2.37;2.27;;;18.30;33.00;;;;;;5140062;27;20234;-58
2022/03/07 07:35:48;;;;;;;3.60;2.20;;;18.30;33.10;;;;;;5140913;27;20215;-58
2022/03/07 07:38:14;;;;;;;3.00;2.10;;;18.30;33.10;;;;;;5139359;27;20268;-58
2022/03/07 07:40:40;;;;;;;3.00;2.77;;;18.30;33.00;;;;;;5142036;27;20226;-58
2022/03/07 07:43:06;;;;;;;2.00;1.90;;;18.30;33.10;;;;;;5138458;27;20224;-57
2022/03/07 07:45:32;;;;;;;2.17;2.07;;;18.30;33.10;;;;;;5140544;27;20538;-57
2022/03/07 07:47:59;;;;;;;2.00;1.90;;;18.30;33.10;;;;;;5140172;27;21437;-57
2022/03/07 07:50:25;;;;;;;2.17;1.97;;;18.30;33.10;;;;;;5144203;27;20440;-57
2022/03/07 07:52:51;;;;;;;2.20;2.00;;;18.30;33.10;;;;;;5137975;27;20768;-57
2022/03/07 07:55:17;;;;;;;2.13;2.00;;;18.30;33.90;;;;;;5138865;27;20508;-58
2022/03/07 07:57:42;;;;;;;5.63;2.30;;;18.30;33.10;;;;;;5144584;27;20321;-58
2022/03/07 08:00:10;;;;;;;2.60;1.90;;;18.30;33.10;;;;;;5142603;27;20215;-58
2022/03/07 08:02:37;;;;;;;5.50;2.20;;;18.30;33.10;;;;;;5143257;27;20214;-58
2022/03/07 08:05:04;;;;;;;3.97;1.80;;;18.40;33.20;;;;;;5146508;27;20507;-58
2022/03/07 08:07:30;;;;;;;1.80;1.70;;;18.30;33.80;;;;;;5140106;27;21073;-58
2022/03/07 08:09:56;;;;;;;1.93;1.83;;;18.30;33.10;;;;;;5140238;27;20495;-57
2022/03/07 08:12:21;;;;;;;6.13;2.90;;;18.40;33.20;;;;;;5142007;27;20487;-57
2022/03/07 08:14:47;;;;;;;1.83;1.60;;;18.30;33.10;;;;;;5137229;27;20283;-56
2022/03/07 08:17:15;;;;;;;1.80;1.70;;;18.40;33.20;;;;;;5144141;27;20211;-56
2022/03/07 08:19:40;;;;;;;2.00;1.90;;;18.40;33.20;;;;;;5141623;27;20211;-58
2022/03/07 08:22:06;;;;;;;2.53;2.40;;;18.40;33.10;;;;;;5143995;27;20499;-57
2022/03/07 08:24:32;;;;;;;1.83;1.73;;;18.40;33.10;;;;;;5142537;27;20668;-57
2022/03/07 08:26:58;;;;;;;1.93;1.80;;;18.40;33.20;;;;;;5138337;27;20269;-58
2022/03/07 08:29:24;;;;;;;2.90;1.97;;;18.40;33.20;;;;;;5139495;27;20671;-58
2022/03/07 08:31:49;;;;;;;4.60;1.53;;;18.40;33.20;;;;;;5143158;27;20231;-58
2022/03/07 08:34:15;;;;;;;2.80;1.70;;;18.40;33.10;;;;;;5137192;27;20799;-58
2022/03/07 08:36:41;;;;;;;1.70;1.60;;;18.40;33.10;;;;;;5139220;27;20295;-58
2022/03/07 08:39:06;;;;;;;1.77;1.67;;;18.40;33.20;;;;;;5140138;27;20664;-60
2022/03/07 08:41:34;;;;;;;6.37;1.80;;;18.40;33.20;;;;;;5137781;27;20221;-58
2022/03/07 08:44:00;;;;;;;5.03;1.90;;;18.40;33.20;;;;;;5136117;27;20296;-58
2022/03/07 08:46:26;;;;;;;5.43;2.00;;;18.40;33.20;;;;;;5136778;27;20462;-57
2022/03/07 08:48:51;;;;;;;12.40;3.00;;;18.40;33.20;;;;;;5136293;27;20433;-58
2022/03/07 08:51:17;;;;;;;1.70;1.60;;;18.40;33.20;;;;;;5141072;27;20255;-58
2022/03/07 08:53:43;;;;;;;2.80;1.50;;;18.40;33.30;;;;;;5136490;27;20918;-58
2022/03/07 08:56:08;;;;;;;2.73;1.63;;;18.40;33.30;;;;;;5136002;27;20222;-59
2022/03/07 08:58:34;;;;;;;1.70;1.60;;;18.40;33.20;;;;;;5135851;27;20222;-57
2022/03/07 09:01:00;;;;;;;2.30;1.73;;;18.40;33.20;;;;;;5140392;27;20230;-57
2022/03/07 09:03:26;;;;;;;1.50;1.40;;;18.40;33.20;;;;;;5141947;27;20446;-57
2022/03/07 09:05:51;;;;;;;2.17;2.07;;;18.40;33.30;;;;;;5138804;27;20668;-58
2022/03/07 09:08:17;;;;;;;1.70;1.60;;;18.40;33.30;;;;;;5123681;27;20211;-58
2022/03/07 09:10:42;;;;;;;1.60;1.50;;;18.40;33.20;;;;;;5139938;27;20235;-58
2022/03/07 09:13:08;;;;;;;4.97;1.60;;;18.40;34.10;;;;;;5140854;27;20235;-57
2022/03/07 09:15:34;;;;;;;1.90;1.50;;;18.40;33.30;;;;;;5136497;27;20219;-57
2022/03/07 09:18:00;;;;;;;2.00;1.90;;;18.40;33.30;;;;;;5139496;27;20233;-58
2022/03/07 09:20:26;;;;;;;1.93;1.50;;;18.40;33.30;;;;;;5136262;27;20220;-57
2022/03/07 09:22:52;;;;;;;2.00;1.50;;;18.30;33.20;;;;;;5140089;27;20422;-58
2022/03/07 09:25:18;;;;;;;3.20;1.70;;;18.30;33.30;;;;;;5139897;27;20508;-57
2022/03/07 09:27:44;;;;;;;4.13;1.57;;;18.30;33.20;;;;;;5135618;27;20307;-58
2022/03/07 09:30:12;;;;;;;1.50;1.40;;;18.40;33.30;;;;;;5139012;27;20223;-58
2022/03/07 09:32:37;;;;;;;1.80;1.70;;;18.30;33.20;;;;;;5123781;27;20502;-57
2022/03/07 09:35:05;;;;;;;2.93;2.63;;;18.40;33.30;;;;;;5137982;27;20451;-58
2022/03/07 09:37:30;;;;;;;5.33;1.93;;;18.40;33.50;;;;;;5140038;27;20410;-58
2022/03/07 09:39:56;;;;;;;2.73;2.10;;;18.40;33.60;;;;;;5140766;27;20857;-58
2022/03/07 09:42:22;;;;;;;7.70;2.43;;;18.50;33.60;;;;;;5139712;27;20444;-58
2022/03/07 09:44:48;;;;;;;2.60;1.60;;;18.50;33.70;;;;;;5137833;27;20239;-58
2022/03/07 09:47:15;;;;;;;1.60;1.50;;;18.50;33.70;;;;;;5140451;27;20218;-59
2022/03/07 09:49:40;;;;;;;2.10;1.90;;;18.60;33.80;;;;;;5137978;27;20466;-58
2022/03/07 09:52:06;;;;;;;4.90;1.80;;;18.60;33.80;;;;;;5137582;27;20426;-58
2022/03/07 09:54:32;;;;;;;2.40;1.77;;;18.60;33.80;;;;;;5143803;27;20247;-58
2022/03/07 09:56:58;;;;;;;3.40;1.80;;;18.60;33.70;;;;;;5125805;27;20472;-58
2022/03/07 09:59:24;;;;;;;2.53;1.53;;;18.60;33.60;;;;;;5141236;27;20273;-57
2022/03/07 10:02:01;;;;;;;2.47;2.23;;;18.60;33.60;;;;;;5141614;27;20210;-57
2022/03/07 10:04:30;;;;;;;6.80;2.90;;;18.60;33.60;;;;;;5136792;27;20566;-57
2022/03/07 10:06:56;;;;;;;4.67;1.60;;;18.60;33.60;;;;;;5141615;27;20777;-57
2022/03/07 10:09:25;;;;;;;5.17;1.50;;;18.60;33.70;;;;;;5136961;27;20474;-57
2022/03/07 10:12:00;;;;;;;7.07;1.80;;;18.50;33.70;;;;;;5138987;27;20471;-57
2022/03/07 10:14:41;;;;;;;4.00;1.80;;;18.50;33.70;;;;;;5143773;27;20466;-57
2022/03/07 10:17:24;;;;;;;6.37;1.60;;;18.50;33.80;;;;;;5141654;27;20922;-56
2022/03/07 10:19:56;;;;;;;7.60;1.80;;;18.50;33.80;;;;;;5136883;27;20466;-56
2022/03/07 10:22:24;;;;;;;7.73;2.33;;;18.50;33.80;;;;;;5136735;27;20752;-56
2022/03/07 10:25:05;;;;;;;4.03;1.47;;;18.40;33.70;;;;;;5141913;27;20534;-57
2022/03/07 10:27:39;;;;;;;4.40;1.40;;;18.40;33.70;;;;;;5146860;27;20426;-56
2022/03/07 10:30:12;;;;;;;2.00;1.30;;;18.40;33.70;;;;;;5143245;27;20447;-56
2022/03/07 10:32:38;;;;;;;1.93;1.40;;;18.40;33.70;;;;;;5143000;27;20466;-56
2022/03/07 10:35:04;;;;;;;2.53;1.60;;;18.40;33.70;;;;;;5144952;27;20654;-56
2022/03/07 10:37:34;;;;;;;4.20;1.70;;;18.40;33.60;;;;;;5144558;27;20437;-56
2022/03/07 10:40:00;;;;;;;1.50;1.40;;;18.40;33.60;;;;;;5140390;27;20467;-57
2022/03/07 10:42:26;;;;;;;1.73;1.63;;;18.40;33.60;;;;;;5143072;27;20450;-58
2022/03/07 10:44:51;;;;;;;3.17;1.47;;;18.40;33.60;;;;;;5141694;27;20211;-57
2022/03/07 10:47:19;;;;;;;1.87;1.63;;;18.40;33.40;;;;;;5142045;27;20220;-57
2022/03/07 10:49:50;;;;;;;4.10;1.60;;;18.40;33.30;;;;;;5121513;27;20226;-57
2022/03/07 10:52:16;;;;;;;3.83;1.50;;;18.40;33.40;;;;;;5138598;27;20475;-57
2022/03/07 10:54:42;;;;;;;3.30;1.70;;;18.40;33.40;;;;;;5139012;27;20462;-59
2022/03/07 10:57:08;;;;;;;3.00;1.80;;;18.40;33.50;;;;;;5140570;27;20607;-58
2022/03/07 10:59:36;;;;;;;5.07;1.63;;;18.30;33.30;;;;;;5140845;27;20299;-58
2022/03/07 11:02:06;;;;;;;2.27;1.87;;;18.40;33.50;;;;;;5142917;27;20440;-58
2022/03/07 11:04:35;;;;;;;2.10;1.40;;;18.40;33.50;;;;;;5143791;27;20463;-57
2022/03/07 11:07:01;;;;;;;1.60;1.37;;;18.30;33.30;;;;;;5138839;27;20427;-58
2022/03/07 11:09:27;;;;;;;3.10;1.90;;;18.30;33.30;;;;;;5139336;27;20817;-58
2022/03/07 11:11:54;;;;;;;3.53;1.40;;;18.30;33.30;;;;;;5141567;27;20238;-58
2022/03/07 11:14:20;;;;;;;1.43;1.20;;;18.30;33.40;;;;;;5142518;27;20460;-58
2022/03/07 11:16:49;;;;;;;1.50;1.03;;;18.30;33.30;;;;;;5144527;27;20453;-58
2022/03/07 11:19:18;;;;;;;2.30;1.30;;;18.30;33.30;;;;;;5140313;27;20407;-59
2022/03/07 11:21:46;;;;;;;1.53;1.40;;;18.30;33.30;;;;;;5141624;27;20925;-59
2022/03/07 11:24:12;;;;;;;1.43;1.33;;;18.30;33.30;;;;;;5139307;27;20437;-59
2022/03/07 11:26:42;;;;;;;1.30;1.20;;;18.30;33.30;;;;;;5144613;27;20435;-59
2022/03/07 11:29:08;;;;;;;2.00;1.90;;;18.30;33.30;;;;;;5147316;27;20465;-58
2022/03/07 11:31:34;;;;;;;1.43;1.33;;;18.30;33.30;;;;;;5143533;27;20460;-58
2022/03/07 11:34:06;;;;;;;1.73;1.20;;;18.30;33.30;;;;;;5142034;27;21057;-58
2022/03/07 11:36:32;;;;;;;1.90;1.40;;;18.30;33.30;;;;;;5134864;27;20436;-58
2022/03/07 11:39:01;;;;;;;2.87;1.70;;;18.30;33.30;;;;;;5140214;27;20440;-58
2022/03/07 11:41:29;;;;;;;2.80;1.50;;;18.30;33.30;;;;;;5138301;27;20970;-59
2022/03/07 11:44:01;;;;;;;8.80;1.40;;;18.30;33.30;;;;;;5141535;27;20444;-59
2022/03/07 11:46:37;;;;;;;5.87;1.30;;;18.30;33.20;;;;;;5141314;27;20424;-59
2022/03/07 11:49:06;;;;;;;1.57;1.47;;;18.30;33.20;;;;;;5147565;27;20428;-59
2022/03/07 11:51:36;;;;;;;1.90;1.70;;;18.30;33.20;;;;;;5144674;27;20407;-58
2022/03/07 11:54:03;;;;;;;1.20;1.10;;;18.30;33.20;;;;;;5138300;27;20407;-57
2022/03/07 11:56:33;;;;;;;1.40;1.30;;;18.40;34.10;;;;;;5139715;27;20430;-58
2022/03/07 11:59:00;;;;;;;3.00;1.30;;;18.30;33.20;;;;;;5141481;27;20433;-58
2022/03/07 12:01:27;;;;;;;3.40;1.40;;;18.30;33.20;;;;;;5122613;27;20989;-58
2022/03/07 12:03:53;;;;;;;2.60;1.40;;;18.30;33.30;;;;;;5141052;27;20474;-57
2022/03/07 12:06:21;;;;;;;1.50;1.33;;;18.30;33.30;;;;;;5144240;27;20451;-57
2022/03/07 12:08:56;;;;;;;2.13;1.40;;;18.30;33.30;;;;;;5142205;27;20431;-58
2022/03/07 12:11:29;;;;;;;1.63;1.53;;;18.30;33.30;;;;;;5138676;27;20462;-57
2022/03/07 12:14:02;;;;;;;1.40;1.30;;;18.30;33.30;;;;;;5143688;27;20444;-58
2022/03/07 12:16:33;;;;;;;1.40;1.30;;;18.30;33.30;;;;;;5140985;27;20386;-57
2022/03/07 12:19:14;;;;;;;2.20;1.40;;;18.30;33.40;;;;;;5143945;27;20391;-57
2022/03/07 12:21:44;;;;;;;1.40;1.30;;;18.30;33.40;;;;;;5139366;27;20434;-57
2022/03/07 12:24:11;;;;;;;2.43;1.20;;;18.30;33.50;;;;;;5139601;27;20425;-57
2022/03/07 12:26:50;;;;;;;1.60;1.47;;;18.30;33.40;;;;;;5140797;27;20557;-57
2022/03/07 12:29:17;;;;;;;2.00;1.13;;;18.30;33.40;;;;;;5137873;27;20452;-57
2022/03/07 12:31:54;;;;;;;1.50;1.20;;;18.30;33.50;;;;;;5144387;27;20442;-57
2022/03/07 12:34:25;;;;;;;1.97;1.27;;;18.30;33.50;;;;;;5144551;27;20419;-58
2022/03/07 12:37:20;;;;;;;1.30;1.20;;;18.30;33.50;;;;;;5142714;27;20817;-58
2022/03/07 12:39:57;;;;;;;2.93;1.20;;;18.30;33.50;;;;;;5136494;27;20478;-57
2022/03/07 12:42:28;;;;;;;2.17;1.30;;;18.30;33.50;;;;;;5138600;27;20426;-57
2022/03/07 12:44:55;;;;;;;1.20;1.10;;;18.30;33.50;;;;;;5145531;27;20420;-57